Ashford, Alabama
Current Conditions -  °F | °C
As of 5:53 AM on Saturday 25 Oct 2014 (Local Time) from KDHN Reporting Station
Clear Clear  
Wind Chill: 47°   Ceiling: Unl
Heat Index: 47°   Visibility: 10mi
Dew Point: 43°   Wind: 3mph
Humidity: 86%   Direction: 320°NW
Pressure: 30.07"   Gusts: NA
Location:  31.18°N, 85.24°W
Report Text: KDHN 251053Z AUTO 32003KT 10SM CLR 08/06 A3007 RMK AO2 SLP182 T00830061
Loading
Personal Weather Stations






























Interactive Weather Map
Tropical Storm Tracking
New forecast layout! Learn more

10-Day Weather Forecast

Advertisements
Track Severe Weather on mobile